Time;durP1;ratioP1;P1;durP2;ratioP2;P2;SDS_P1;SDS_P2;PMS_P1;PMS_P2;Temp;Humidity;BMP_temperature;BMP_pressure;BME280_temperature;BME280_humidity;BME280_pressure;Samples;Min_cycle;Max_cycle;Signal;HPM_P1;HPM_P2
2021/07/02 00:00:52;;;;;;;;;;;16.10;99.90;;;;;;5029685;28;19948;-57
2021/07/02 00:03:17;;;;;;;;;;;16.20;99.90;;;;;;5028371;28;19957;-58
2021/07/02 00:05:44;;;;;;;;;;;16.20;99.90;;;;;;5026282;28;21321;-59
2021/07/02 00:08:10;;;;;;;;;;;16.20;99.90;;;;;;5031281;28;20392;-57
2021/07/02 00:10:36;;;;;;;;;;;16.20;99.90;;;;;;5027750;28;19913;-58
2021/07/02 00:13:01;;;;;;;;;;;16.30;99.90;;;;;;5029846;28;20307;-55
2021/07/02 00:15:26;;;;;;;;;;;16.30;99.90;;;;;;5026484;28;19964;-57
2021/07/02 00:17:52;;;;;;;;;;;16.30;99.90;;;;;;5029579;28;20358;-56
2021/07/02 00:20:17;;;;;;;;;;;16.30;99.90;;;;;;5028225;28;19917;-55
2021/07/02 00:22:43;;;;;;;;;;;16.30;99.90;;;;;;5027040;28;19924;-58
2021/07/02 00:25:09;;;;;;;;;;;16.30;99.90;;;;;;5030629;28;19913;-57
2021/07/02 00:27:35;;;;;;;;;;;16.40;99.90;;;;;;5027660;28;19910;-58
2021/07/02 00:30:00;;;;;;;;;;;16.40;99.90;;;;;;5029867;28;19963;-58
2021/07/02 00:32:26;;;;;;;;;;;16.30;99.90;;;;;;5026490;28;19997;-58
2021/07/02 00:34:52;;;;;;;;;;;16.40;99.90;;;;;;5028261;28;19917;-57
2021/07/02 00:37:17;;;;;;;;;;;16.40;99.90;;;;;;5029335;28;19916;-58
2021/07/02 00:39:43;;;;;;;;;;;16.40;99.90;;;;;;5027856;28;19913;-55
2021/07/02 00:42:08;;;;;;;;;;;16.40;99.90;;;;;;5030023;28;19917;-58
2021/07/02 00:44:39;;;;;;;;;;;16.40;99.90;;;;;;5026767;28;20340;-58
2021/07/02 00:47:05;;;;;;;;;;;16.40;99.90;;;;;;5029723;28;19963;-58
2021/07/02 00:49:32;;;;;;;;;;;16.40;99.90;;;;;;5025472;28;19917;-58
2021/07/02 00:51:57;;;;;;;;;;;16.40;99.90;;;;;;5028826;28;20307;-58
2021/07/02 00:54:23;;;;;;;;;;;16.40;99.90;;;;;;5013412;28;19920;-58
2021/07/02 00:56:48;;;;;;;;;;;16.40;99.90;;;;;;5020080;28;20345;-58
2021/07/02 00:59:14;;;;;;;;;;;16.40;99.90;;;;;;5024302;28;20467;-58
2021/07/02 01:01:39;;;;;;;;;;;16.40;99.90;;;;;;5026334;28;19967;-58
2021/07/02 01:04:05;;;;;;;;;;;16.40;99.90;;;;;;5023433;28;20334;-55
2021/07/02 01:06:30;;;;;;;;;;;16.40;99.90;;;;;;5013071;28;19916;-57
2021/07/02 01:08:56;;;;;;;;;;;16.40;99.90;;;;;;5030054;28;20003;-59
2021/07/02 01:11:22;;;;;;;;;;;16.40;99.90;;;;;;5027041;28;19963;-59
2021/07/02 01:13:47;;;;;;;;;;;16.40;99.90;;;;;;5029117;28;20375;-57
2021/07/02 01:16:12;;;;;;;;;;;16.40;99.90;;;;;;5025696;28;19913;-58
2021/07/02 01:18:38;;;;;;;;;;;16.40;99.90;;;;;;5012022;28;19914;-57
2021/07/02 01:21:04;;;;;;;;;;;16.40;99.90;;;;;;5030627;28;19910;-58
2021/07/02 01:23:30;;;;;;;;;;;16.40;99.90;;;;;;5026487;28;19913;-59
2021/07/02 01:25:56;;;;;;;;;;;16.40;99.90;;;;;;5024635;28;19909;-58
2021/07/02 01:28:22;;;;;;;;;;;16.40;99.90;;;;;;5029141;28;19909;-58
2021/07/02 01:30:47;;;;;;;;;;;16.40;99.90;;;;;;5025541;28;19909;-58
2021/07/02 01:33:13;;;;;;;;;;;16.40;99.90;;;;;;5028268;28;19913;-57
2021/07/02 01:35:39;;;;;;;;;;;16.40;99.90;;;;;;5027460;28;20298;-59
2021/07/02 01:38:05;;;;;;;;;;;16.40;99.90;;;;;;5012072;28;19909;-58
2021/07/02 01:40:31;;;;;;;;;;;16.40;99.90;;;;;;5028608;28;19910;-56
2021/07/02 01:42:58;;;;;;;;;;;16.40;99.90;;;;;;5030679;28;20314;-57
2021/07/02 01:45:23;;;;;;;;;;;16.40;99.90;;;;;;5026387;28;19952;-55
2021/07/02 01:47:49;;;;;;;;;;;16.40;99.90;;;;;;5005592;28;20408;-59
2021/07/02 01:50:14;;;;;;;;;;;16.40;99.90;;;;;;5025672;28;19956;-56
2021/07/02 01:52:40;;;;;;;;;;;16.50;99.90;;;;;;5006188;28;19932;-57
2021/07/02 01:55:05;;;;;;;;;;;16.40;99.90;;;;;;5032576;28;19913;-57
2021/07/02 01:57:31;;;;;;;;;;;16.40;99.90;;;;;;5031159;28;19963;-58
2021/07/02 01:59:57;;;;;;;;;;;16.40;99.90;;;;;;5009548;28;19909;-58
2021/07/02 02:02:23;;;;;;;;;;;16.40;99.90;;;;;;5030217;28;19944;-58
2021/07/02 02:04:48;;;;;;;;;;;16.40;99.90;;;;;;5032024;28;19913;-58
2021/07/02 02:07:14;;;;;;;;;;;16.40;99.90;;;;;;5029199;28;20341;-58
2021/07/02 02:09:39;;;;;;;;;;;16.40;99.90;;;;;;5031401;28;19910;-54
2021/07/02 02:12:05;;;;;;;;;;;16.40;99.90;;;;;;5033243;28;20268;-58
2021/07/02 02:14:31;;;;;;;;;;;16.40;99.90;;;;;;5030196;28;19936;-59
2021/07/02 02:16:56;;;;;;;;;;;16.40;99.90;;;;;;5032491;28;20375;-58
2021/07/02 02:19:22;;;;;;;;;;;16.30;99.90;;;;;;5029503;28;19949;-58
2021/07/02 02:21:48;;;;;;;;;;;16.40;99.90;;;;;;5032020;28;19909;-56
2021/07/02 02:24:14;;;;;;;;;;;16.40;99.90;;;;;;5028126;28;19909;-58
2021/07/02 02:26:39;;;;;;;;;;;16.30;99.90;;;;;;5030542;28;20271;-58
2021/07/02 02:29:04;;;;;;;;;;;16.30;99.90;;;;;;5032891;28;19909;-57
2021/07/02 02:31:30;;;;;;;;;;;16.30;99.90;;;;;;5029955;28;20028;-56
2021/07/02 02:33:56;;;;;;;;;;;16.30;99.90;;;;;;5008200;28;19918;-56
2021/07/02 02:36:21;;;;;;;;;;;16.30;99.90;;;;;;5028553;28;19917;-58
2021/07/02 02:38:47;;;;;;;;;;;16.30;99.90;;;;;;5031360;28;20363;-60
2021/07/02 02:41:12;;;;;;;;;;;16.30;99.90;;;;;;5027761;28;20333;-57
2021/07/02 02:43:38;;;;;;;;;;;16.20;99.90;;;;;;5030193;28;20324;-59
2021/07/02 02:46:03;;;;;;;;;;;16.20;99.90;;;;;;5031461;28;19972;-59
2021/07/02 02:48:29;;;;;;;;;;;16.20;99.90;;;;;;5010492;28;19948;-59
2021/07/02 02:50:54;;;;;;;;;;;16.10;99.90;;;;;;5030274;28;19963;-56
2021/07/02 02:53:20;;;;;;;;;;;16.10;99.90;;;;;;5033576;28;19909;-59
2021/07/02 02:55:45;;;;;;;;;;;16.10;99.90;;;;;;5029624;28;19936;-58
2021/07/02 02:58:11;;;;;;;;;;;16.10;99.90;;;;;;5032254;28;19909;-56
2021/07/02 03:00:37;;;;;;;;;;;16.10;99.90;;;;;;5008816;28;20430;-58
2021/07/02 03:03:02;;;;;;;;;;;16.00;99.90;;;;;;5031248;28;20412;-58
2021/07/02 03:05:28;;;;;;;;;;;16.00;99.90;;;;;;5027101;28;19909;-57
2021/07/02 03:07:55;;;;;;;;;;;16.00;99.90;;;;;;5030339;28;19915;-59
2021/07/02 03:10:20;;;;;;;;;;;15.90;99.90;;;;;;5033210;28;20004;-57
2021/07/02 03:12:46;;;;;;;;;;;15.90;99.90;;;;;;5029681;28;20351;-55
2021/07/02 03:15:11;;;;;;;;;;;15.80;99.90;;;;;;5031371;28;19913;-57
2021/07/02 03:17:37;;;;;;;;;;;15.80;99.90;;;;;;5028931;28;19915;-59
2021/07/02 03:20:05;;;;;;;;;;;15.80;99.90;;;;;;5031234;28;20008;-59
2021/07/02 03:22:30;;;;;;;;;;;15.80;99.90;;;;;;5033152;28;19963;-58
2021/07/02 03:24:56;;;;;;;;;;;15.70;99.90;;;;;;5029725;28;20297;-58
2021/07/02 03:27:21;;;;;;;;;;;15.70;99.90;;;;;;5032788;28;19913;-57
2021/07/02 03:29:47;;;;;;;;;;;15.70;99.90;;;;;;5029208;28;19915;-61
2021/07/02 03:32:12;;;;;;;;;;;15.70;99.90;;;;;;5031497;28;19963;-59
2021/07/02 03:34:38;;;;;;;;;;;15.60;99.90;;;;;;5027389;28;19924;-56
2021/07/02 03:37:04;;;;;;;;;;;15.60;99.90;;;;;;5030665;28;19909;-59
2021/07/02 03:39:30;;;;;;;;;;;15.60;99.90;;;;;;5027369;28;19909;-61
2021/07/02 03:41:55;;;;;;;;;;;15.60;99.90;;;;;;5029746;28;19916;-59
2021/07/02 03:44:21;;;;;;;;;;;15.60;99.90;;;;;;5030633;28;20357;-57
2021/07/02 03:46:46;;;;;;;;;;;15.60;99.90;;;;;;5032297;28;19916;-58
2021/07/02 03:49:11;;;;;;;;;;;15.60;99.90;;;;;;5006085;28;19910;-58
2021/07/02 03:51:37;;;;;;;;;;;15.60;99.90;;;;;;5032262;28;19909;-57
2021/07/02 03:54:02;;;;;;;;;;;15.60;99.90;;;;;;5012621;28;19916;-57
2021/07/02 03:56:28;;;;;;;;;;;15.60;99.90;;;;;;5029601;28;19921;-58
2021/07/02 03:58:53;;;;;;;;;;;15.70;99.90;;;;;;5031661;28;20287;-58
2021/07/02 04:01:19;;;;;;;;;;;15.70;99.90;;;;;;5026331;28;19957;-59
2021/07/02 04:03:44;;;;;;;;;;;15.70;99.90;;;;;;5032106;28;19955;-56
2021/07/02 04:06:10;;;;;;;;;;;15.70;99.90;;;;;;5023871;28;19917;-58
2021/07/02 04:08:36;;;;;;;;;;;15.70;99.90;;;;;;5031943;28;20008;-59
2021/07/02 04:11:03;;;;;;;;;;;15.70;99.90;;;;;;5030136;28;19909;-56
2021/07/02 04:13:28;;;;;;;;;;;15.70;99.90;;;;;;5006010;28;19931;-56
2021/07/02 04:15:54;;;;;;;;;;;15.70;99.90;;;;;;5030713;28;19909;-59
2021/07/02 04:18:20;;;;;;;;;;;15.70;99.90;;;;;;5005584;28;19909;-57
2021/07/02 04:20:46;;;;;;;;;;;15.70;99.90;;;;;;5031673;28;19912;-59
2021/07/02 04:23:11;;;;;;;;;;;15.70;99.90;;;;;;5023858;28;20510;-59
2021/07/02 04:25:37;;;;;;;;;;;15.70;99.90;;;;;;5031075;28;19909;-57
2021/07/02 04:28:02;;;;;;;;;;;15.70;99.90;;;;;;5029878;28;19952;-58
2021/07/02 04:30:28;;;;;;;;;;;15.70;99.90;;;;;;5028602;28;19910;-56
2021/07/02 04:32:53;;;;;;;;;;;15.70;99.90;;;;;;5030985;28;20531;-59
2021/07/02 04:35:18;;;;;;;;;;;15.70;99.90;;;;;;5025017;28;20009;-57
2021/07/02 04:37:44;;;;;;;;;;;15.70;99.90;;;;;;5031448;28;19909;-58
2021/07/02 04:40:10;;;;;;;;;;;15.70;99.90;;;;;;5023465;28;19947;-60
2021/07/02 04:42:36;;;;;;;;;;;15.70;99.90;;;;;;5030992;28;19915;-59
2021/07/02 04:45:02;;;;;;;;;;;15.70;99.90;;;;;;5029312;28;19913;-60
2021/07/02 04:47:28;;;;;;;;;;;15.70;99.90;;;;;;5005564;28;19917;-59
2021/07/02 04:49:53;;;;;;;;;;;15.70;99.90;;;;;;5028463;28;19909;-59
2021/07/02 04:52:19;;;;;;;;;;;15.70;99.90;;;;;;5009515;28;19921;-59
2021/07/02 04:54:44;;;;;;;;;;;15.70;99.90;;;;;;5025477;28;20465;-59
2021/07/02 04:57:10;;;;;;;;;;;15.80;99.90;;;;;;5030123;28;20346;-59
2021/07/02 04:59:37;;;;;;;;;;;15.80;99.90;;;;;;5011931;28;19913;-59
2021/07/02 05:02:03;;;;;;;;;;;15.70;99.90;;;;;;5029173;28;20016;-59
2021/07/02 05:04:29;;;;;;;;;;;15.70;99.90;;;;;;5025351;28;19961;-58
2021/07/02 05:06:55;;;;;;;;;;;15.80;99.90;;;;;;5028521;28;20510;-61
2021/07/02 05:09:21;;;;;;;;;;;15.80;99.90;;;;;;5031014;28;19916;-56
2021/07/02 05:11:47;;;;;;;;;;;15.90;99.90;;;;;;5027536;28;19909;-61
2021/07/02 05:14:13;;;;;;;;;;;15.90;99.90;;;;;;5029984;28;19920;-59
2021/07/02 05:16:39;;;;;;;;;;;16.00;99.90;;;;;;5026489;28;19917;-59
2021/07/02 05:19:04;;;;;;;;;;;16.00;99.90;;;;;;5029229;28;19909;-60
2021/07/02 05:21:30;;;;;;;;;;;16.00;99.90;;;;;;5025636;28;20008;-60
2021/07/02 05:23:55;;;;;;;;;;;16.10;99.90;;;;;;5012877;28;19925;-59
2021/07/02 05:26:21;;;;;;;;;;;16.20;99.90;;;;;;5030293;28;19917;-60
2021/07/02 05:28:47;;;;;;;;;;;16.30;99.90;;;;;;5026791;28;19951;-59
2021/07/02 05:31:14;;;;;;;;;;;16.30;99.90;;;;;;5029743;28;19909;-58
2021/07/02 05:33:40;;;;;;;;;;;16.40;99.90;;;;;;5026031;28;19910;-58
2021/07/02 05:36:05;;;;;;;;;;;16.40;99.90;;;;;;5028324;28;19928;-58
2021/07/02 05:38:31;;;;;;;;;;;16.40;99.90;;;;;;5025339;28;19920;-56
2021/07/02 05:40:56;;;;;;;;;;;16.40;99.90;;;;;;5027672;28;19913;-57
2021/07/02 05:43:23;;;;;;;;;;;16.50;99.90;;;;;;5008329;28;20012;-56
2021/07/02 05:45:48;;;;;;;;;;;16.50;99.90;;;;;;5026517;28;20473;-57
2021/07/02 05:48:18;;;;;;;;;;;16.60;99.90;;;;;;5025687;28;19909;-55
2021/07/02 05:50:43;;;;;;;;;;;16.60;99.90;;;;;;5027758;28;19909;-57
2021/07/02 05:53:09;;;;;;;;;;;16.60;99.90;;;;;;5030104;28;19913;-55
2021/07/02 05:55:34;;;;;;;;;;;16.70;99.90;;;;;;5026626;28;20422;-57
2021/07/02 05:58:01;;;;;;;;;;;16.70;99.90;;;;;;5029230;28;19909;-57
2021/07/02 06:00:26;;;;;;;;;;;16.80;99.90;;;;;;5026122;28;19909;-56
2021/07/02 06:02:52;;;;;;;;;;;16.90;99.90;;;;;;5028416;28;20392;-57
2021/07/02 06:05:17;;;;;;;;;;;16.90;99.90;;;;;;5025238;28;19909;-57
2021/07/02 06:07:44;;;;;;;;;;;16.90;99.90;;;;;;5027676;28;19998;-58
2021/07/02 06:10:10;;;;;;;;;;;16.90;99.90;;;;;;5029977;28;19913;-58
2021/07/02 06:12:35;;;;;;;;;;;16.90;99.90;;;;;;5026701;28;19909;-58
2021/07/02 06:15:01;;;;;;;;;;;16.80;99.90;;;;;;5028842;28;19928;-58
2021/07/02 06:17:26;;;;;;;;;;;16.80;99.90;;;;;;5026178;28;19916;-59
2021/07/02 06:19:52;;;;;;;;;;;16.80;99.90;;;;;;5028301;28;19941;-58
2021/07/02 06:22:17;;;;;;;;;;;16.90;99.90;;;;;;5025294;28;20004;-60
2021/07/02 06:24:42;;;;;;;;;;;17.10;99.90;;;;;;5027276;28;19916;-60
2021/07/02 06:27:08;;;;;;;;;;;17.30;99.90;;;;;;5029724;28;19935;-57
2021/07/02 06:29:33;;;;;;;;;;;17.50;99.90;;;;;;5026662;28;19963;-58
2021/07/02 06:31:59;;;;;;;;;;;17.70;99.90;;;;;;5028857;28;20426;-57
2021/07/02 06:34:24;;;;;;;;;;;17.80;99.90;;;;;;5025427;28;19997;-54
2021/07/02 06:36:50;;;;;;;;;;;17.80;99.90;;;;;;5027873;28;20011;-58
2021/07/02 06:39:15;;;;;;;;;;;17.80;99.90;;;;;;5024920;28;19915;-57
2021/07/02 06:41:41;;;;;;;;;;;17.70;99.90;;;;;;5030851;28;19920;-58
2021/07/02 06:44:06;;;;;;;;;;;17.70;99.90;;;;;;5031491;28;19963;-56
2021/07/02 06:46:33;;;;;;;;;;;17.80;99.90;;;;;;5033633;28;19967;-59
2021/07/02 06:48:59;;;;;;;;;;;18.00;99.90;;;;;;5027262;28;19910;-58
2021/07/02 06:51:25;;;;;;;;;;;18.10;99.90;;;;;;5032240;28;19913;-56
2021/07/02 06:53:52;;;;;;;;;;;18.30;99.90;;;;;;5033389;28;20391;-58
2021/07/02 06:56:17;;;;;;;;;;;18.40;99.90;;;;;;5029058;28;20004;-59
2021/07/02 06:58:43;;;;;;;;;;;18.60;99.90;;;;;;5033318;28;20057;-59
2021/07/02 07:01:08;;;;;;;;;;;18.80;99.90;;;;;;5026655;28;20445;-57
2021/07/02 07:03:34;;;;;;;;;;;18.90;99.90;;;;;;5033310;28;19909;-55
2021/07/02 07:06:00;;;;;;;;;;;18.90;99.90;;;;;;5026577;28;19916;-56
2021/07/02 07:08:25;;;;;;;;;;;18.90;99.90;;;;;;5031874;28;20331;-57
2021/07/02 07:10:51;;;;;;;;;;;19.00;99.90;;;;;;5032575;28;20003;-53
2021/07/02 07:13:17;;;;;;;;;;;19.00;99.90;;;;;;5028798;28;19921;-57
2021/07/02 07:15:42;;;;;;;;;;;19.20;99.90;;;;;;5032908;28;19913;-57
2021/07/02 07:18:08;;;;;;;;;;;19.30;99.90;;;;;;5026686;28;19909;-56
2021/07/02 07:20:33;;;;;;;;;;;19.50;99.90;;;;;;5032818;28;19915;-55
2021/07/02 07:22:59;;;;;;;;;;;19.60;99.90;;;;;;5026533;28;19913;-55
2021/07/02 07:25:25;;;;;;;;;;;19.60;99.90;;;;;;5030688;28;19909;-59
2021/07/02 07:27:51;;;;;;;;;;;19.60;99.90;;;;;;5032563;28;19939;-56
2021/07/02 07:30:16;;;;;;;;;;;19.70;99.90;;;;;;5006618;28;20454;-58
2021/07/02 07:32:42;;;;;;;;;;;19.80;99.90;;;;;;5032692;28;19916;-57
2021/07/02 07:35:30;;;;;;;;;;;19.70;99.90;;;;;;5025681;28;19948;-55
2021/07/02 07:37:56;;;;;;;;;;;19.70;99.90;;;;;;5031688;28;19964;-56
2021/07/02 07:40:22;;;;;;;;;;;19.90;99.90;;;;;;5025536;28;20465;-58
2021/07/02 07:42:49;;;;;;;;;;;20.10;99.90;;;;;;5032493;28;20426;-57
2021/07/02 07:45:14;;;;;;;;;;;20.20;99.90;;;;;;5030522;28;20378;-57
2021/07/02 07:47:40;;;;;;;;;;;20.20;99.90;;;;;;5027336;28;19910;-54
2021/07/02 07:50:10;;;;;;;;;;;20.30;99.90;;;;;;5029674;28;19909;-53
2021/07/02 07:55:20;;;;;;;;;;;20.60;99.90;;;;;;5024444;28;19967;-57
2021/07/02 07:57:46;;;;;;;;;;;20.80;99.90;;;;;;5031184;28;19909;-55
2021/07/02 08:00:11;;;;;;;;;;;20.90;99.90;;;;;;5013803;28;19917;-58
2021/07/02 08:02:37;;;;;;;;;;;21.00;99.90;;;;;;5030389;28;19909;-58
2021/07/02 08:05:03;;;;;;;;;;;21.20;99.90;;;;;;5026290;28;19995;-58
2021/07/02 08:07:33;;;;;;;;;;;21.50;99.90;;;;;;5029802;28;19926;-56
2021/07/02 08:09:59;;;;;;;;;;;21.40;99.90;;;;;;5031755;28;19913;-57
2021/07/02 08:12:24;;;;;;;;;;;21.50;99.90;;;;;;5028683;28;19975;-57
2021/07/02 08:14:50;;;;;;;;;;;21.40;99.90;;;;;;5030788;28;19913;-57
2021/07/02 08:17:16;;;;;;;;;;;21.20;99.90;;;;;;5032306;28;19956;-55
2021/07/02 08:19:41;;;;;;;;;;;21.20;99.90;;;;;;5030086;28;20368;-57
2021/07/02 08:22:06;;;;;;;;;;;21.30;99.90;;;;;;5026602;28;20298;-56
2021/07/02 08:24:32;;;;;;;;;;;21.60;99.90;;;;;;5028851;28;19909;-57
2021/07/02 08:26:58;;;;;;;;;;;21.70;99.90;;;;;;5031448;28;19955;-56
2021/07/02 08:29:27;;;;;;;;;;;21.90;99.90;;;;;;5028460;28;20394;-57
2021/07/02 08:31:53;;;;;;;;;;;21.90;99.90;;;;;;5030535;28;19909;-56
2021/07/02 08:34:19;;;;;;;;;;;22.10;99.90;;;;;;5026904;28;19932;-58
2021/07/02 08:36:44;;;;;;;;;;;22.20;99.90;;;;;;5031418;28;19999;-57
2021/07/02 08:39:10;;;;;;;;;;;22.00;99.90;;;;;;5026004;28;19917;-57
2021/07/02 08:41:36;;;;;;;;;;;21.80;99.90;;;;;;5028781;28;19909;-57
2021/07/02 08:44:02;;;;;;;;;;;21.60;99.90;;;;;;5029571;28;19909;-53
2021/07/02 08:46:28;;;;;;;;;;;21.90;99.90;;;;;;5030937;28;19909;-58
2021/07/02 08:48:54;;;;;;;;;;;22.30;99.90;;;;;;5025375;28;20058;-54
2021/07/02 08:51:20;;;;;;;;;;;22.50;99.90;;;;;;5029207;28;20392;-58
2021/07/02 08:53:45;;;;;;;;;;;22.90;99.90;;;;;;5031008;28;20288;-56
2021/07/02 08:56:11;;;;;;;;;;;23.10;99.90;;;;;;5026417;28;20299;-58
2021/07/02 08:58:37;;;;;;;;;;;23.20;99.90;;;;;;5031175;28;20452;-56
2021/07/02 09:01:07;;;;;;;;;;;23.30;99.90;;;;;;5024988;28;19952;-58
2021/07/02 09:03:36;;;;;;;;;;;23.30;99.90;;;;;;5024590;28;19940;-57
2021/07/02 09:06:05;;;;;;;;;;;23.20;99.90;;;;;;5024060;28;19919;-55
2021/07/02 09:08:32;;;;;;;;;;;23.10;99.90;;;;;;5004910;28;20048;-53
2021/07/02 09:10:57;;;;;;;;;;;22.80;99.90;;;;;;5029928;28;20387;-55
2021/07/02 09:13:38;;;;;;;;;;;22.70;99.90;;;;;;5027690;28;19909;-57
2021/07/02 09:16:18;;;;;;;;;;;22.80;99.90;;;;;;5028743;28;19913;-58
2021/07/02 09:18:44;;;;;;;;;;;23.10;99.90;;;;;;5028634;28;19909;-58
2021/07/02 09:21:21;;;;;;;;;;;23.50;99.90;;;;;;5027952;28;20463;-56
2021/07/02 09:23:46;;;;;;;;;;;23.90;99.90;;;;;;5004914;28;19939;-55
2021/07/02 09:26:31;;;;;;;;;;;23.90;99.90;;;;;;5030133;28;20379;-55
2021/07/02 09:29:16;;;;;;;;;;;23.70;99.90;;;;;;5027277;28;19931;-58
2021/07/02 09:31:41;;;;;;;;;;;23.50;99.90;;;;;;5029737;28;19913;-56
2021/07/02 09:34:07;;;;;;;;;;;23.30;99.90;;;;;;5026103;28;19913;-54
2021/07/02 09:36:33;;;;;;;;;;;23.10;99.90;;;;;;5028633;28;19925;-54
2021/07/02 09:38:58;;;;;;;;;;;23.00;99.90;;;;;;5025210;28;20356;-53
2021/07/02 09:41:33;;;;;;;;;;;22.80;99.90;;;;;;5028000;28;19956;-55
2021/07/02 09:44:08;;;;;;;;;;;22.80;99.90;;;;;;5029121;28;19913;-56
2021/07/02 09:46:35;;;;;;;;;;;22.70;99.90;;;;;;5024556;28;19909;-57
2021/07/02 09:49:01;;;;;;;;;;;23.00;99.90;;;;;;5023331;28;20303;-56
2021/07/02 09:51:28;;;;;;;;;;;23.40;99.90;;;;;;5029365;28;19909;-55
2021/07/02 09:54:07;;;;;;;;;;;23.90;99.90;;;;;;5029724;28;19913;-57
2021/07/02 09:56:32;;;;;;;;;;;24.10;99.90;;;;;;5027917;28;20001;-57
2021/07/02 09:58:58;;;;;;;;;;;23.90;99.90;;;;;;5029145;28;19909;-56
2021/07/02 10:01:27;;;;;;;;;;;23.50;99.90;;;;;;5025281;28;19924;-59
2021/07/02 10:03:53;;;;;;;;;;;23.30;99.90;;;;;;5029830;28;19924;-54
2021/07/02 10:06:19;;;;;;;;;;;23.20;99.90;;;;;;5022657;28;20384;-56
2021/07/02 10:08:44;;;;;;;;;;;23.30;99.90;;;;;;5029825;28;19918;-57
2021/07/02 10:11:13;;;;;;;;;;;23.30;99.90;;;;;;5027666;28;19917;-56
2021/07/02 10:13:39;;;;;;;;;;;23.50;99.90;;;;;;5004534;28;20035;-54
2021/07/02 10:16:06;;;;;;;;;;;23.20;99.90;;;;;;5030391;28;19948;-58
2021/07/02 10:18:36;;;;;;;;;;;23.00;99.90;;;;;;5029985;28;19948;-55
2021/07/02 10:21:02;;;;;;;;;;;23.20;99.90;;;;;;5032242;28;19913;-58
2021/07/02 10:23:35;;;;;;;;;;;23.40;99.90;;;;;;5007233;28;19909;-57
2021/07/02 10:26:02;;;;;;;;;;;23.80;99.90;;;;;;5033372;28;20430;-56
2021/07/02 10:28:29;;;;;;;;;;;23.80;99.90;;;;;;5030291;28;19909;-55
2021/07/02 10:30:55;;;;;;;;;;;23.70;99.90;;;;;;5032709;28;19997;-55
2021/07/02 10:33:22;;;;;;;;;;;23.60;99.90;;;;;;5012799;28;19960;-59
2021/07/02 10:36:01;;;;;;;;;;;23.40;99.90;;;;;;5027716;28;20323;-58
2021/07/02 10:38:37;;;;;;;;;;;23.20;99.90;;;;;;5023086;28;19919;-56
2021/07/02 10:41:10;;;;;;;;;;;23.30;99.90;;;;;;5029417;28;19909;-56
2021/07/02 10:43:35;;;;;;;;;;;23.60;99.90;;;;;;5033110;28;19970;-57
2021/07/02 10:46:11;;;;;;;;;;;24.00;99.90;;;;;;5031274;28;20338;-57
2021/07/02 10:48:49;;;;;;;;;;;24.30;99.90;;;;;;5028738;28;19916;-57
2021/07/02 10:51:35;;;;;;;;;;;24.20;99.90;;;;;;5030784;28;19913;-55
2021/07/02 10:54:13;;;;;;;;;;;24.10;99.90;;;;;;5024212;28;19963;-57
2021/07/02 10:56:38;;;;;;;;;;;24.30;99.90;;;;;;5032011;28;19963;-58
2021/07/02 10:59:04;;;;;;;;;;;24.30;99.90;;;;;;5031402;28;20337;-58
2021/07/02 11:01:31;;;;;;;;;;;24.20;99.90;;;;;;5029171;28;20007;-56
2021/07/02 11:04:15;;;;;;;;;;;24.40;99.90;;;;;;5032532;28;19909;-55
2021/07/02 11:06:41;;;;;;;;;;;24.50;99.90;;;;;;5029007;28;19909;-58
2021/07/02 11:09:08;;;;;;;;;;;24.50;99.90;;;;;;5033534;28;20288;-58
2021/07/02 11:11:52;;;;;;;;;;;24.00;99.90;;;;;;5030254;28;20264;-57
2021/07/02 11:14:17;;;;;;;;;;;23.50;99.90;;;;;;5025434;28;19914;-57
2021/07/02 11:17:01;;;;;;;;;;;23.40;99.90;;;;;;5028382;28;19909;-58
2021/07/02 11:19:27;;;;;;;;;;;23.30;99.90;;;;;;5026397;28;19920;-55
2021/07/02 11:22:18;;;;;;;;;;;23.50;99.90;;;;;;5027684;28;19909;-58
2021/07/02 11:25:00;;;;;;;;;;;23.60;99.90;;;;;;5029301;28;20376;-56
2021/07/02 11:27:57;;;;;;;;;;;23.70;99.90;;;;;;5025734;28;20033;-55
2021/07/02 11:32:56;;;;;;;;;;;23.80;99.90;;;;;;5032648;28;19909;-56
2021/07/02 11:35:23;;;;;;;;;;;24.00;99.90;;;;;;5013612;28;19917;-59
2021/07/02 11:37:59;;;;;;;;;;;24.30;99.90;;;;;;5014930;28;19917;-59
2021/07/02 11:40:45;;;;;;;;;;;24.50;99.90;;;;;;5026392;28;19916;-60
2021/07/02 11:43:10;;;;;;;;;;;24.80;99.90;;;;;;5032892;28;20288;-59
2021/07/02 11:45:47;;;;;;;;;;;24.60;99.90;;;;;;5030547;28;19988;-57
2021/07/02 11:48:19;;;;;;;;;;;24.50;99.90;;;;;;5027173;28;20371;-58
2021/07/02 11:50:46;;;;;;;;;;;24.30;99.90;;;;;;5029761;28;19919;-57
2021/07/02 11:53:30;;;;;;;;;;;24.40;99.90;;;;;;5032169;28;19985;-58
2021/07/02 11:55:56;;;;;;;;;;;24.50;99.90;;;;;;5028129;28;20660;-58
2021/07/02 11:58:22;;;;;;;;;;;23.70;99.90;;;;;;5024059;28;19909;-58
2021/07/02 12:00:47;;;;;;;;;;;23.40;99.90;;;;;;5028093;28;20005;-56
2021/07/02 12:03:16;;;;;;;;;;;23.20;99.90;;;;;;5030291;28;19909;-57
2021/07/02 12:05:51;;;;;;;;;;;23.20;99.90;;;;;;5026631;28;19909;-58
2021/07/02 12:08:18;;;;;;;;;;;23.50;99.90;;;;;;5029615;28;20387;-55
2021/07/02 12:10:44;;;;;;;;;;;23.90;99.90;;;;;;5032207;28;20334;-53
2021/07/02 12:13:09;;;;;;;;;;;24.10;99.90;;;;;;5027505;28;19924;-58
2021/07/02 12:15:36;;;;;;;;;;;24.40;99.90;;;;;;5031799;28;19913;-57
2021/07/02 12:18:04;;;;;;;;;;;24.20;99.90;;;;;;5025974;28;19989;-59
2021/07/02 12:20:29;;;;;;;;;;;24.10;99.90;;;;;;5025240;28;20373;-57
2021/07/02 12:23:05;;;;;;;;;;;24.00;99.90;;;;;;5026021;28;19948;-57
2021/07/02 12:25:30;;;;;;;;;;;24.00;99.90;;;;;;5005344;28;19999;-58
2021/07/02 12:27:59;;;;;;;;;;;24.00;99.90;;;;;;5030817;28;19987;-56
2021/07/02 12:30:25;;;;;;;;;;;24.20;99.90;;;;;;5028281;28;20517;-56
2021/07/02 12:32:52;;;;;;;;;;;24.40;99.90;;;;;;5023365;28;20296;-58
2021/07/02 12:35:17;;;;;;;;;;;24.20;99.90;;;;;;5028999;28;19921;-58
2021/07/02 12:37:44;;;;;;;;;;;24.00;99.90;;;;;;5030650;28;19909;-55
2021/07/02 12:40:12;;;;;;;;;;;24.00;99.90;;;;;;5023810;28;19913;-59
2021/07/02 12:42:38;;;;;;;;;;;24.00;99.90;;;;;;5026091;28;20356;-56
2021/07/02 12:45:07;;;;;;;;;;;24.30;99.90;;;;;;5029277;28;19909;-56
2021/07/02 12:47:34;;;;;;;;;;;24.50;99.90;;;;;;5025752;28;20435;-57
2021/07/02 12:50:02;;;;;;;;;;;24.20;99.90;;;;;;5028732;28;19920;-58
2021/07/02 12:54:56;;;;;;;;;;;24.20;99.90;;;;;;5027307;28;20406;-57
2021/07/02 12:57:22;;;;;;;;;;;24.30;99.90;;;;;;5030203;28;20267;-54
2021/07/02 12:59:53;;;;;;;;;;;24.40;99.90;;;;;;5004756;28;19944;-56
2021/07/02 13:02:22;;;;;;;;;;;24.50;99.90;;;;;;5023292;28;19913;-57
2021/07/02 13:04:48;;;;;;;;;;;24.20;99.90;;;;;;5025486;28;19941;-58
2021/07/02 13:07:13;;;;;;;;;;;24.20;99.90;;;;;;5012847;28;19959;-55
2021/07/02 13:09:39;;;;;;;;;;;24.40;99.90;;;;;;5030691;28;19932;-59
2021/07/02 13:12:12;;;;;;;;;;;24.20;99.90;;;;;;5027473;28;19916;-56
2021/07/02 13:14:41;;;;;;;;;;;24.10;99.90;;;;;;5029079;28;19917;-58
2021/07/02 13:17:08;;;;;;;;;;;24.00;99.90;;;;;;5025582;28;19913;-56
2021/07/02 13:19:33;;;;;;;;;;;24.00;99.90;;;;;;5029435;28;19916;-56
2021/07/02 13:22:13;;;;;;;;;;;23.70;99.90;;;;;;5025545;28;20015;-58
2021/07/02 13:24:38;;;;;;;;;;;23.70;99.90;;;;;;5027648;28;19916;-54
2021/07/02 13:27:04;;;;;;;;;;;23.80;99.90;;;;;;5030289;28;20286;-58
2021/07/02 13:29:30;;;;;;;;;;;23.80;99.90;;;;;;5027152;28;19916;-57
2021/07/02 13:31:57;;;;;;;;;;;23.90;99.90;;;;;;5029099;28;19992;-59
2021/07/02 13:34:23;;;;;;;;;;;24.00;99.90;;;;;;5025237;28;19913;-59
2021/07/02 13:36:56;;;;;;;;;;;24.00;99.90;;;;;;5012399;28;20047;-56
2021/07/02 13:39:33;;;;;;;;;;;23.90;99.90;;;;;;5022954;28;19968;-55
2021/07/02 13:42:04;;;;;;;;;;;24.10;99.90;;;;;;5027425;28;20287;-57
2021/07/02 13:44:30;;;;;;;;;;;24.20;99.90;;;;;;5029701;28;19971;-59
2021/07/02 13:47:00;;;;;;;;;;;24.30;99.90;;;;;;5029301;28;20429;-58
2021/07/02 13:49:25;;;;;;;;;;;24.40;99.90;;;;;;5025759;28;19914;-53
2021/07/02 13:51:51;;;;;;;;;;;24.60;99.90;;;;;;5034135;28;19915;-57
2021/07/02 13:54:17;;;;;;;;;;;24.70;99.90;;;;;;5030537;28;19913;-58
2021/07/02 13:56:42;;;;;;;;;;;24.70;99.90;;;;;;5032489;28;19909;-59
2021/07/02 13:59:08;;;;;;;;;;;24.60;99.90;;;;;;5031761;28;19979;-55
2021/07/02 14:01:34;;;;;;;;;;;24.40;99.90;;;;;;5030468;28;19910;-52
2021/07/02 14:03:59;;;;;;;;;;;24.50;99.90;;;;;;5032720;28;19913;-56
2021/07/02 14:06:25;;;;;;;;;;;24.50;99.90;;;;;;5027418;28;19909;-58
2021/07/02 14:08:51;;;;;;;;;;;24.60;99.90;;;;;;5016119;28;19913;-58
2021/07/02 14:11:16;;;;;;;;;;;24.70;99.90;;;;;;5030420;28;19910;-58
2021/07/02 14:13:42;;;;;;;;;;;24.60;99.90;;;;;;5032828;28;19920;-56
2021/07/02 14:16:07;;;;;;;;;;;24.50;99.90;;;;;;5031040;28;19913;-54
2021/07/02 14:18:33;;;;;;;;;;;24.20;99.90;;;;;;5030059;28;19909;-60
2021/07/02 14:20:58;;;;;;;;;;;24.20;99.90;;;;;;5032531;28;19963;-54
2021/07/02 14:23:24;;;;;;;;;;;24.10;99.90;;;;;;5026871;28;19956;-59